sensor_id;sensor_type;location;lat;lon;timestamp;pressure;altitude;pressure_sealevel;temperature;humidity
39487;BME280;25173;50.430;18.926;2023-09-19T00:01:33;97568.22;;;22.98;57.48
39487;BME280;25173;50.430;18.926;2023-09-19T00:04:34;97567.06;;;22.99;57.14
39487;BME280;25173;50.430;18.926;2023-09-19T00:07:35;97565.91;;;23.00;57.25
39487;BME280;25173;50.430;18.926;2023-09-19T00:10:37;97570.66;;;22.99;56.77
39487;BME280;25173;50.430;18.926;2023-09-19T00:13:40;97564.28;;;22.99;56.74
39487;BME280;25173;50.430;18.926;2023-09-19T00:16:40;97562.69;;;22.98;57.06
39487;BME280;25173;50.430;18.926;2023-09-19T00:19:41;97564.66;;;22.97;56.87
39487;BME280;25173;50.430;18.926;2023-09-19T00:22:43;97563.47;;;22.98;56.96
39487;BME280;25173;50.430;18.926;2023-09-19T00:25:43;97566.34;;;23.02;56.76
39487;BME280;25173;50.430;18.926;2023-09-19T00:28:45;97561.22;;;23.04;56.69
39487;BME280;25173;50.430;18.926;2023-09-19T00:31:46;97556.50;;;23.08;56.92
39487;BME280;25173;50.430;18.926;2023-09-19T00:34:46;97549.44;;;23.10;56.69
39487;BME280;25173;50.430;18.926;2023-09-19T00:37:47;97541.09;;;23.10;56.72
39487;BME280;25173;50.430;18.926;2023-09-19T00:40:48;97535.16;;;23.12;56.76
39487;BME280;25173;50.430;18.926;2023-09-19T00:43:51;97540.72;;;23.12;57.02
39487;BME280;25173;50.430;18.926;2023-09-19T00:46:53;97536.03;;;23.16;56.77
39487;BME280;25173;50.430;18.926;2023-09-19T00:49:54;97530.50;;;23.19;56.55
39487;BME280;25173;50.430;18.926;2023-09-19T00:52:55;97525.34;;;23.18;56.60
39487;BME280;25173;50.430;18.926;2023-09-19T00:55:58;97527.34;;;23.21;56.35
39487;BME280;25173;50.430;18.926;2023-09-19T00:58:59;97518.28;;;23.24;56.44
39487;BME280;25173;50.430;18.926;2023-09-19T01:01:59;97517.53;;;23.27;56.26
39487;BME280;25173;50.430;18.926;2023-09-19T01:05:01;97519.91;;;23.25;56.33
39487;BME280;25173;50.430;18.926;2023-09-19T01:08:02;97513.91;;;23.23;56.52
39487;BME280;25173;50.430;18.926;2023-09-19T01:11:28;97506.00;;;23.25;56.12
39487;BME280;25173;50.430;18.926;2023-09-19T01:14:42;97508.78;;;23.25;56.21
39487;BME280;25173;50.430;18.926;2023-09-19T01:17:50;97503.63;;;23.27;56.13
39487;BME280;25173;50.430;18.926;2023-09-19T01:24:17;97494.56;;;23.30;56.35
39487;BME280;25173;50.430;18.926;2023-09-19T01:27:47;97490.53;;;23.28;56.42
39487;BME280;25173;50.430;18.926;2023-09-19T01:30:56;97486.97;;;23.27;56.19
39487;BME280;25173;50.430;18.926;2023-09-19T01:34:02;97477.41;;;23.25;56.50
39487;BME280;25173;50.430;18.926;2023-09-19T01:37:08;97480.56;;;23.23;56.16
39487;BME280;25173;50.430;18.926;2023-09-19T01:40:10;97475.00;;;23.23;56.47
39487;BME280;25173;50.430;18.926;2023-09-19T01:43:21;97469.88;;;23.25;56.07
39487;BME280;25173;50.430;18.926;2023-09-19T01:46:30;97473.50;;;23.29;56.27
39487;BME280;25173;50.430;18.926;2023-09-19T01:49:55;97472.78;;;23.32;56.09
39487;BME280;25173;50.430;18.926;2023-09-19T01:53:06;97466.34;;;23.28;56.13
39487;BME280;25173;50.430;18.926;2023-09-19T01:56:15;97464.38;;;23.29;56.29
39487;BME280;25173;50.430;18.926;2023-09-19T01:59:24;97470.00;;;23.32;56.46
39487;BME280;25173;50.430;18.926;2023-09-19T02:02:27;97479.94;;;23.33;56.16
39487;BME280;25173;50.430;18.926;2023-09-19T02:05:30;97472.78;;;23.32;56.46
39487;BME280;25173;50.430;18.926;2023-09-19T02:08:30;97475.13;;;23.30;56.33
39487;BME280;25173;50.430;18.926;2023-09-19T02:11:33;97476.72;;;23.31;56.54
39487;BME280;25173;50.430;18.926;2023-09-19T02:14:35;97478.75;;;23.34;56.42
39487;BME280;25173;50.430;18.926;2023-09-19T02:17:37;97484.72;;;23.36;56.91
39487;BME280;25173;50.430;18.926;2023-09-19T02:20:39;97479.53;;;23.35;56.65
39487;BME280;25173;50.430;18.926;2023-09-19T02:23:40;97480.34;;;23.35;56.79
39487;BME280;25173;50.430;18.926;2023-09-19T02:26:41;97480.75;;;23.34;56.54
39487;BME280;25173;50.430;18.926;2023-09-19T02:29:43;97481.09;;;23.32;56.73
39487;BME280;25173;50.430;18.926;2023-09-19T02:32:44;97474.38;;;23.33;56.72
39487;BME280;25173;50.430;18.926;2023-09-19T02:35:45;97473.56;;;23.33;56.62
39487;BME280;25173;50.430;18.926;2023-09-19T02:38:46;97465.97;;;23.30;56.91
39487;BME280;25173;50.430;18.926;2023-09-19T02:41:47;97463.56;;;23.28;56.94
39487;BME280;25173;50.430;18.926;2023-09-19T02:44:47;97465.13;;;23.26;57.13
39487;BME280;25173;50.430;18.926;2023-09-19T02:47:48;97471.06;;;23.24;57.00
39487;BME280;25173;50.430;18.926;2023-09-19T02:50:49;97469.88;;;23.25;57.12
39487;BME280;25173;50.430;18.926;2023-09-19T02:53:50;97467.09;;;23.25;57.08
39487;BME280;25173;50.430;18.926;2023-09-19T02:56:54;97470.25;;;23.23;57.08
39487;BME280;25173;50.430;18.926;2023-09-19T02:59:55;97464.69;;;23.23;57.42
39487;BME280;25173;50.430;18.926;2023-09-19T03:02:56;97467.91;;;23.26;57.32
39487;BME280;25173;50.430;18.926;2023-09-19T03:05:57;97467.16;;;23.29;57.36
39487;BME280;25173;50.430;18.926;2023-09-19T03:08:59;97463.25;;;23.33;57.58
39487;BME280;25173;50.430;18.926;2023-09-19T03:12:00;97460.88;;;23.35;57.73
39487;BME280;25173;50.430;18.926;2023-09-19T03:15:02;97460.47;;;23.33;57.45
39487;BME280;25173;50.430;18.926;2023-09-19T03:18:05;97468.38;;;23.31;57.36
39487;BME280;25173;50.430;18.926;2023-09-19T03:21:07;97458.44;;;23.30;57.21
39487;BME280;25173;50.430;18.926;2023-09-19T03:24:19;97456.00;;;23.25;57.25
39487;BME280;25173;50.430;18.926;2023-09-19T03:27:26;97447.97;;;23.20;57.42
39487;BME280;25173;50.430;18.926;2023-09-19T03:30:28;97454.28;;;23.17;57.59
39487;BME280;25173;50.430;18.926;2023-09-19T03:33:36;97451.44;;;23.13;57.59
39487;BME280;25173;50.430;18.926;2023-09-19T03:36:37;97447.84;;;23.13;57.82
39487;BME280;25173;50.430;18.926;2023-09-19T03:39:44;97445.06;;;23.13;57.91
39487;BME280;25173;50.430;18.926;2023-09-19T03:42:48;97450.63;;;23.13;58.33
39487;BME280;25173;50.430;18.926;2023-09-19T03:46:10;97439.59;;;23.16;58.29
39487;BME280;25173;50.430;18.926;2023-09-19T03:49:17;97446.38;;;23.19;58.43
39487;BME280;25173;50.430;18.926;2023-09-19T03:52:18;97446.78;;;23.21;58.47
39487;BME280;25173;50.430;18.926;2023-09-19T03:55:23;97450.38;;;23.21;58.37
39487;BME280;25173;50.430;18.926;2023-09-19T03:58:24;97443.19;;;23.20;58.56
39487;BME280;25173;50.430;18.926;2023-09-19T04:01:24;97445.50;;;23.15;58.87
39487;BME280;25173;50.430;18.926;2023-09-19T04:04:26;97439.91;;;23.11;59.14
39487;BME280;25173;50.430;18.926;2023-09-19T04:07:26;97431.94;;;23.10;58.89
39487;BME280;25173;50.430;18.926;2023-09-19T04:10:29;97438.25;;;23.07;59.31
39487;BME280;25173;50.430;18.926;2023-09-19T04:13:31;97423.50;;;23.03;59.30
39487;BME280;25173;50.430;18.926;2023-09-19T04:16:31;97424.25;;;23.00;59.54
39487;BME280;25173;50.430;18.926;2023-09-19T04:19:32;97423.44;;;22.99;59.67
39487;BME280;25173;50.430;18.926;2023-09-19T04:22:32;97427.81;;;23.00;59.48
39487;BME280;25173;50.430;18.926;2023-09-19T04:25:33;97427.81;;;23.00;59.82
39487;BME280;25173;50.430;18.926;2023-09-19T04:28:34;97426.53;;;22.94;59.93
39487;BME280;25173;50.430;18.926;2023-09-19T04:31:34;97430.84;;;22.92;60.03
39487;BME280;25173;50.430;18.926;2023-09-19T04:34:35;97436.31;;;22.84;60.43
39487;BME280;25173;50.430;18.926;2023-09-19T04:37:40;97438.16;;;22.77;60.82
39487;BME280;25173;50.430;18.926;2023-09-19T04:40:41;97430.94;;;22.72;60.71
39487;BME280;25173;50.430;18.926;2023-09-19T04:43:42;97444.31;;;22.67;61.18
39487;BME280;25173;50.430;18.926;2023-09-19T04:46:42;97437.41;;;22.57;61.13
39487;BME280;25173;50.430;18.926;2023-09-19T04:49:43;97443.28;;;22.52;61.57
39487;BME280;25173;50.430;18.926;2023-09-19T04:52:44;97449.78;;;22.40;61.77
39487;BME280;25173;50.430;18.926;2023-09-19T04:55:45;97446.44;;;22.31;62.20
39487;BME280;25173;50.430;18.926;2023-09-19T04:58:46;97450.34;;;22.27;62.28
39487;BME280;25173;50.430;18.926;2023-09-19T05:01:47;97458.97;;;22.22;62.66
39487;BME280;25173;50.430;18.926;2023-09-19T05:04:47;97458.84;;;22.15;62.86
39487;BME280;25173;50.430;18.926;2023-09-19T05:07:48;97461.47;;;22.08;63.11
39487;BME280;25173;50.430;18.926;2023-09-19T05:10:49;97472.13;;;22.05;63.30
39487;BME280;25173;50.430;18.926;2023-09-19T05:13:49;97477.97;;;22.00;63.76
39487;BME280;25173;50.430;18.926;2023-09-19T05:16:50;97479.38;;;21.94;64.01
39487;BME280;25173;50.430;18.926;2023-09-19T05:19:51;97480.38;;;21.86;64.56
39487;BME280;25173;50.430;18.926;2023-09-19T05:23:03;97484.97;;;21.79;65.28
39487;BME280;25173;50.430;18.926;2023-09-19T05:26:05;97482.22;;;21.79;65.02
39487;BME280;25173;50.430;18.926;2023-09-19T05:29:06;97475.75;;;21.90;64.96
39487;BME280;25173;50.430;18.926;2023-09-19T05:32:09;97489.41;;;21.99;64.92
39487;BME280;25173;50.430;18.926;2023-09-19T05:35:10;97485.09;;;22.01;65.19
39487;BME280;25173;50.430;18.926;2023-09-19T05:38:13;97505.69;;;22.00;65.49
39487;BME280;25173;50.430;18.926;2023-09-19T05:41:16;97515.97;;;22.00;65.46
39487;BME280;25173;50.430;18.926;2023-09-19T05:44:18;97509.06;;;21.94;65.71
39487;BME280;25173;50.430;18.926;2023-09-19T05:47:18;97507.34;;;21.86;66.20
39487;BME280;25173;50.430;18.926;2023-09-19T05:50:19;97507.09;;;21.75;66.47
39487;BME280;25173;50.430;18.926;2023-09-19T05:53:20;97510.38;;;21.61;66.87
39487;BME280;25173;50.430;18.926;2023-09-19T05:56:20;97515.00;;;21.57;67.29
39487;BME280;25173;50.430;18.926;2023-09-19T05:59:21;97515.66;;;21.51;67.42
39487;BME280;25173;50.430;18.926;2023-09-19T06:02:21;97515.03;;;21.42;67.83
39487;BME280;25173;50.430;18.926;2023-09-19T06:05:23;97514.81;;;21.31;68.18
39487;BME280;25173;50.430;18.926;2023-09-19T06:08:24;97506.69;;;21.22;68.45
39487;BME280;25173;50.430;18.926;2023-09-19T06:11:26;97519.38;;;21.23;68.77
39487;BME280;25173;50.430;18.926;2023-09-19T06:14:28;97522.16;;;21.23;68.88
39487;BME280;25173;50.430;18.926;2023-09-19T06:17:29;97516.16;;;21.21;68.91
39487;BME280;25173;50.430;18.926;2023-09-19T06:20:31;97525.63;;;21.20;68.90
39487;BME280;25173;50.430;18.926;2023-09-19T06:23:34;97531.25;;;21.24;68.99
39487;BME280;25173;50.430;18.926;2023-09-19T06:26:35;97541.59;;;21.27;69.05
39487;BME280;25173;50.430;18.926;2023-09-19T06:29:36;97542.25;;;21.20;69.34
39487;BME280;25173;50.430;18.926;2023-09-19T06:32:37;97543.84;;;21.21;69.36
39487;BME280;25173;50.430;18.926;2023-09-19T06:35:38;97551.00;;;21.22;69.46
39487;BME280;25173;50.430;18.926;2023-09-19T06:38:38;97550.66;;;21.24;70.06
39487;BME280;25173;50.430;18.926;2023-09-19T06:41:40;97550.88;;;21.35;69.92
39487;BME280;25173;50.430;18.926;2023-09-19T06:44:44;97564.50;;;21.40;69.92
39487;BME280;25173;50.430;18.926;2023-09-19T06:47:45;97567.69;;;21.42;70.13
39487;BME280;25173;50.430;18.926;2023-09-19T06:50:46;97564.13;;;21.41;70.51
39487;BME280;25173;50.430;18.926;2023-09-19T06:53:48;97564.91;;;21.42;70.42
39487;BME280;25173;50.430;18.926;2023-09-19T06:56:49;97567.69;;;21.42;70.67
39487;BME280;25173;50.430;18.926;2023-09-19T06:59:49;97577.19;;;21.41;70.41
39487;BME280;25173;50.430;18.926;2023-09-19T07:03:03;97576.63;;;21.51;70.88
39487;BME280;25173;50.430;18.926;2023-09-19T07:06:08;97593.69;;;21.53;70.30
39487;BME280;25173;50.430;18.926;2023-09-19T07:09:09;97582.91;;;21.48;70.30
39487;BME280;25173;50.430;18.926;2023-09-19T07:12:10;97588.69;;;21.43;70.19
39487;BME280;25173;50.430;18.926;2023-09-19T07:15:12;97595.84;;;21.44;70.33
39487;BME280;25173;50.430;18.926;2023-09-19T07:18:14;97605.47;;;21.50;70.25
39487;BME280;25173;50.430;18.926;2023-09-19T07:21:15;97613.63;;;21.58;70.14
39487;BME280;25173;50.430;18.926;2023-09-19T07:24:16;97609.78;;;21.63;70.46
39487;BME280;25173;50.430;18.926;2023-09-19T07:27:17;97621.75;;;21.67;70.33
39487;BME280;25173;50.430;18.926;2023-09-19T07:30:17;97627.81;;;21.73;69.87
39487;BME280;25173;50.430;18.926;2023-09-19T07:33:18;97633.34;;;21.73;69.96
39487;BME280;25173;50.430;18.926;2023-09-19T07:36:19;97638.25;;;21.79;69.57
39487;BME280;25173;50.430;18.926;2023-09-19T07:39:20;97646.69;;;21.83;69.66
39487;BME280;25173;50.430;18.926;2023-09-19T07:42:21;97638.72;;;21.81;69.59
39487;BME280;25173;50.430;18.926;2023-09-19T07:45:21;97642.66;;;21.80;69.37
39487;BME280;25173;50.430;18.926;2023-09-19T07:48:23;97645.88;;;21.82;69.34
39487;BME280;25173;50.430;18.926;2023-09-19T07:51:25;97656.84;;;21.94;69.14
39487;BME280;25173;50.430;18.926;2023-09-19T07:54:30;97659.91;;;22.05;68.97
39487;BME280;25173;50.430;18.926;2023-09-19T07:57:35;97665.16;;;22.10;69.00
39487;BME280;25173;50.430;18.926;2023-09-19T08:00:36;97664.97;;;22.19;68.84
39487;BME280;25173;50.430;18.926;2023-09-19T08:03:37;97677.06;;;22.11;69.01
39487;BME280;25173;50.430;18.926;2023-09-19T08:06:44;97681.13;;;21.97;69.98
39487;BME280;25173;50.430;18.926;2023-09-19T08:09:45;97681.56;;;21.84;71.01
39487;BME280;25173;50.430;18.926;2023-09-19T08:12:49;97701.59;;;21.77;71.12
39487;BME280;25173;50.430;18.926;2023-09-19T08:15:56;97701.66;;;21.65;71.63
39487;BME280;25173;50.430;18.926;2023-09-19T08:18:56;97704.09;;;21.51;72.42
39487;BME280;25173;50.430;18.926;2023-09-19T08:22:22;97705.44;;;21.41;72.92
39487;BME280;25173;50.430;18.926;2023-09-19T08:25:24;97709.78;;;21.42;73.65
39487;BME280;25173;50.430;18.926;2023-09-19T08:28:28;97719.53;;;21.36;73.77
39487;BME280;25173;50.430;18.926;2023-09-19T08:31:30;97714.97;;;21.28;73.91
39487;BME280;25173;50.430;18.926;2023-09-19T08:34:30;97721.91;;;21.22;74.20
39487;BME280;25173;50.430;18.926;2023-09-19T08:37:34;97728.19;;;21.19;74.38
39487;BME280;25173;50.430;18.926;2023-09-19T08:40:38;97738.66;;;21.13;74.85
39487;BME280;25173;50.430;18.926;2023-09-19T08:43:40;97733.72;;;21.07;77.04
39487;BME280;25173;50.430;18.926;2023-09-19T08:46:41;97728.53;;;21.05;75.09
39487;BME280;25173;50.430;18.926;2023-09-19T08:50:04;97743.03;;;21.14;75.79
39487;BME280;25173;50.430;18.926;2023-09-19T08:53:21;97735.97;;;21.29;75.19
39487;BME280;25173;50.430;18.926;2023-09-19T08:56:24;97742.22;;;21.42;74.75
39487;BME280;25173;50.430;18.926;2023-09-19T08:59:27;97748.78;;;21.49;74.49
39487;BME280;25173;50.430;18.926;2023-09-19T09:02:29;97741.91;;;21.59;74.83
39487;BME280;25173;50.430;18.926;2023-09-19T09:05:32;97742.28;;;21.73;73.93
39487;BME280;25173;50.430;18.926;2023-09-19T09:08:33;97742.03;;;21.78;74.00
39487;BME280;25173;50.430;18.926;2023-09-19T09:11:34;97739.16;;;21.90;73.86
39487;BME280;25173;50.430;18.926;2023-09-19T09:14:34;97740.50;;;22.12;72.89
39487;BME280;25173;50.430;18.926;2023-09-19T09:17:35;97740.47;;;22.28;72.41
39487;BME280;25173;50.430;18.926;2023-09-19T09:20:35;97740.00;;;22.41;72.12
39487;BME280;25173;50.430;18.926;2023-09-19T09:23:36;97742.47;;;22.46;71.58
39487;BME280;25173;50.430;18.926;2023-09-19T09:29:47;97748.28;;;22.57;71.03
39487;BME280;25173;50.430;18.926;2023-09-19T09:33:07;97761.16;;;22.65;70.88
39487;BME280;25173;50.430;18.926;2023-09-19T09:36:08;97761.88;;;22.62;70.62
39487;BME280;25173;50.430;18.926;2023-09-19T09:39:10;97756.50;;;22.54;70.40
39487;BME280;25173;50.430;18.926;2023-09-19T09:42:29;97748.41;;;22.45;71.05
39487;BME280;25173;50.430;18.926;2023-09-19T09:45:32;97757.91;;;22.44;70.63
39487;BME280;25173;50.430;18.926;2023-09-19T09:48:35;97764.31;;;22.48;70.94
39487;BME280;25173;50.430;18.926;2023-09-19T09:51:40;97773.94;;;22.70;70.22
39487;BME280;25173;50.430;18.926;2023-09-19T09:54:59;97773.94;;;22.70;69.09
39487;BME280;25173;50.430;18.926;2023-09-19T09:58:16;97770.19;;;22.62;68.40
39487;BME280;25173;50.430;18.926;2023-09-19T10:01:23;97773.72;;;22.59;68.76
39487;BME280;25173;50.430;18.926;2023-09-19T10:04:28;97771.34;;;22.61;68.73
39487;BME280;25173;50.430;18.926;2023-09-19T10:07:31;97777.81;;;22.65;68.00
39487;BME280;25173;50.430;18.926;2023-09-19T10:13:44;97784.97;;;22.66;68.16
39487;BME280;25173;50.430;18.926;2023-09-19T10:16:48;97790.53;;;22.66;68.37
39487;BME280;25173;50.430;18.926;2023-09-19T10:19:55;97795.63;;;22.64;68.90
39487;BME280;25173;50.430;18.926;2023-09-19T10:23:00;97800.84;;;22.66;68.98
39487;BME280;25173;50.430;18.926;2023-09-19T10:26:01;97793.50;;;22.58;69.56
39487;BME280;25173;50.430;18.926;2023-09-19T10:29:03;97803.00;;;22.57;69.26
39487;BME280;25173;50.430;18.926;2023-09-19T10:32:08;97806.88;;;22.36;68.89
39487;BME280;25173;50.430;18.926;2023-09-19T10:35:11;97819.59;;;22.22;68.88
39487;BME280;25173;50.430;18.926;2023-09-19T10:38:14;97826.78;;;21.95;69.70
39487;BME280;25173;50.430;18.926;2023-09-19T10:41:20;97813.09;;;21.71;70.25
39487;BME280;25173;50.430;18.926;2023-09-19T10:44:23;97823.44;;;21.58;70.82
39487;BME280;25173;50.430;18.926;2023-09-19T10:47:26;97824.47;;;21.38;71.85
39487;BME280;25173;50.430;18.926;2023-09-19T10:50:30;97827.38;;;21.29;72.75
39487;BME280;25173;50.430;18.926;2023-09-19T10:53:43;97832.16;;;21.16;73.63
39487;BME280;25173;50.430;18.926;2023-09-19T10:56:49;97833.78;;;21.05;73.58
39487;BME280;25173;50.430;18.926;2023-09-19T11:00:06;97838.97;;;21.07;74.63
39487;BME280;25173;50.430;18.926;2023-09-19T11:03:23;97837.81;;;21.08;74.24
39487;BME280;25173;50.430;18.926;2023-09-19T11:06:31;97838.66;;;20.96;74.31
39487;BME280;25173;50.430;18.926;2023-09-19T11:09:50;97832.78;;;20.85;75.13
39487;BME280;25173;50.430;18.926;2023-09-19T11:12:55;97841.56;;;20.75;75.36
39487;BME280;25173;50.430;18.926;2023-09-19T11:18:56;97849.91;;;20.63;76.40
39487;BME280;25173;50.430;18.926;2023-09-19T11:21:58;97847.59;;;20.53;76.93
39487;BME280;25173;50.430;18.926;2023-09-19T11:28:33;97843.28;;;20.07;79.57
39487;BME280;25173;50.430;18.926;2023-09-19T11:31:42;97852.34;;;19.95;80.89
39487;BME280;25173;50.430;18.926;2023-09-19T11:34:46;97853.75;;;20.01;82.01
39487;BME280;25173;50.430;18.926;2023-09-19T11:44:32;97856.13;;;20.36;82.57
39487;BME280;25173;50.430;18.926;2023-09-19T11:47:35;97862.38;;;20.45;82.54
39487;BME280;25173;50.430;18.926;2023-09-19T11:50:36;97860.50;;;20.49;81.73
39487;BME280;25173;50.430;18.926;2023-09-19T11:53:43;97853.00;;;20.62;81.70
39487;BME280;25173;50.430;18.926;2023-09-19T11:56:46;97863.63;;;20.72;81.50
39487;BME280;25173;50.430;18.926;2023-09-19T11:59:49;97857.16;;;20.80;80.99
39487;BME280;25173;50.430;18.926;2023-09-19T12:02:51;97852.06;;;20.82;80.92
39487;BME280;25173;50.430;18.926;2023-09-19T12:05:54;97852.97;;;20.86;80.34
39487;BME280;25173;50.430;18.926;2023-09-19T12:08:55;97862.78;;;20.83;80.57
39487;BME280;25173;50.430;18.926;2023-09-19T12:11:57;97860.47;;;20.85;80.34
39487;BME280;25173;50.430;18.926;2023-09-19T12:14:58;97861.63;;;20.97;80.27
39487;BME280;25173;50.430;18.926;2023-09-19T12:17:59;97856.50;;;21.11;80.44
39487;BME280;25173;50.430;18.926;2023-09-19T12:20:59;97851.41;;;21.25;79.85
39487;BME280;25173;50.430;18.926;2023-09-19T12:27:06;97857.53;;;21.74;78.86
39487;BME280;25173;50.430;18.926;2023-09-19T12:30:08;97855.88;;;21.85;78.19
39487;BME280;25173;50.430;18.926;2023-09-19T12:33:19;97855.66;;;22.06;77.68
39487;BME280;25173;50.430;18.926;2023-09-19T12:36:26;97847.41;;;22.10;76.06
39487;BME280;25173;50.430;18.926;2023-09-19T12:39:30;97855.22;;;22.20;75.37
39487;BME280;25173;50.430;18.926;2023-09-19T12:42:31;97858.06;;;22.39;75.31
39487;BME280;25173;50.430;18.926;2023-09-19T12:45:35;97858.69;;;22.48;74.59
39487;BME280;25173;50.430;18.926;2023-09-19T12:48:37;97862.63;;;22.63;74.06
39487;BME280;25173;50.430;18.926;2023-09-19T12:51:48;97855.63;;;22.69;72.58
39487;BME280;25173;50.430;18.926;2023-09-19T12:54:50;97867.31;;;22.74;72.24
39487;BME280;25173;50.430;18.926;2023-09-19T12:58:12;97868.63;;;22.80;71.60
39487;BME280;25173;50.430;18.926;2023-09-19T13:01:16;97860.47;;;22.88;71.59
39487;BME280;25173;50.430;18.926;2023-09-19T13:07:45;97862.59;;;22.94;70.15
39487;BME280;25173;50.430;18.926;2023-09-19T13:14:20;97863.31;;;23.26;70.18
39487;BME280;25173;50.430;18.926;2023-09-19T13:17:21;97861.34;;;23.27;69.71
39487;BME280;25173;50.430;18.926;2023-09-19T13:20:27;97864.88;;;23.27;68.45
39487;BME280;25173;50.430;18.926;2023-09-19T13:23:27;97860.22;;;23.31;68.69
39487;BME280;25173;50.430;18.926;2023-09-19T13:26:28;97858.19;;;23.47;68.54
39487;BME280;25173;50.430;18.926;2023-09-19T13:29:29;97872.84;;;23.64;68.55
39487;BME280;25173;50.430;18.926;2023-09-19T13:32:29;97869.94;;;23.79;67.59
39487;BME280;25173;50.430;18.926;2023-09-19T13:35:30;97866.53;;;23.86;67.21
39487;BME280;25173;50.430;18.926;2023-09-19T13:38:30;97861.91;;;23.93;66.67
39487;BME280;25173;50.430;18.926;2023-09-19T13:41:32;97868.47;;;24.05;66.73
39487;BME280;25173;50.430;18.926;2023-09-19T13:44:32;97872.16;;;24.12;65.82
39487;BME280;25173;50.430;18.926;2023-09-19T13:47:33;97871.16;;;24.20;65.18
39487;BME280;25173;50.430;18.926;2023-09-19T13:50:34;97869.50;;;24.19;64.63
39487;BME280;25173;50.430;18.926;2023-09-19T13:53:37;97876.25;;;24.18;64.28
39487;BME280;25173;50.430;18.926;2023-09-19T13:56:37;97876.78;;;24.24;63.89
39487;BME280;25173;50.430;18.926;2023-09-19T13:59:39;97879.50;;;24.20;62.70
39487;BME280;25173;50.430;18.926;2023-09-19T14:02:39;97883.59;;;24.26;63.10
39487;BME280;25173;50.430;18.926;2023-09-19T14:05:40;97878.38;;;24.48;63.13
39487;BME280;25173;50.430;18.926;2023-09-19T14:08:44;97872.75;;;24.67;61.93
39487;BME280;25173;50.430;18.926;2023-09-19T14:11:47;97881.31;;;24.81;62.01
39487;BME280;25173;50.430;18.926;2023-09-19T14:14:48;97880.63;;;24.88;62.08
39487;BME280;25173;50.430;18.926;2023-09-19T14:17:51;97884.34;;;24.95;61.00
39487;BME280;25173;50.430;18.926;2023-09-19T14:20:51;97884.50;;;24.83;60.13
39487;BME280;25173;50.430;18.926;2023-09-19T14:23:53;97876.47;;;24.78;60.67
39487;BME280;25173;50.430;18.926;2023-09-19T14:26:55;97880.00;;;24.75;60.45
39487;BME280;25173;50.430;18.926;2023-09-19T14:29:56;97888.91;;;24.84;59.67
39487;BME280;25173;50.430;18.926;2023-09-19T14:32:57;97874.03;;;24.73;59.40
39487;BME280;25173;50.430;18.926;2023-09-19T14:36:02;97874.97;;;24.58;59.41
39487;BME280;25173;50.430;18.926;2023-09-19T14:39:03;97882.34;;;24.47;59.47
39487;BME280;25173;50.430;18.926;2023-09-19T14:42:04;97880.94;;;24.33;59.91
39487;BME280;25173;50.430;18.926;2023-09-19T14:45:05;97892.69;;;24.04;60.43
39487;BME280;25173;50.430;18.926;2023-09-19T14:48:06;97891.56;;;23.86;60.78
39487;BME280;25173;50.430;18.926;2023-09-19T14:51:07;97889.00;;;23.77;60.76
39487;BME280;25173;50.430;18.926;2023-09-19T14:54:09;97897.56;;;23.69;61.06
39487;BME280;25173;50.430;18.926;2023-09-19T14:57:10;97899.88;;;23.47;61.25
39487;BME280;25173;50.430;18.926;2023-09-19T15:00:12;97893.28;;;23.36;59.99
39487;BME280;25173;50.430;18.926;2023-09-19T15:03:13;97888.00;;;23.31;59.67
39487;BME280;25173;50.430;18.926;2023-09-19T15:06:15;97879.97;;;23.45;59.86
39487;BME280;25173;50.430;18.926;2023-09-19T15:09:17;97875.84;;;23.55;59.15
39487;BME280;25173;50.430;18.926;2023-09-19T15:12:19;97881.03;;;23.76;59.13
39487;BME280;25173;50.430;18.926;2023-09-19T15:15:21;97883.75;;;23.95;58.56
39487;BME280;25173;50.430;18.926;2023-09-19T15:18:21;97872.63;;;23.95;57.22
39487;BME280;25173;50.430;18.926;2023-09-19T15:21:22;97867.84;;;23.92;57.12
39487;BME280;25173;50.430;18.926;2023-09-19T15:24:24;97864.38;;;23.98;57.43
39487;BME280;25173;50.430;18.926;2023-09-19T15:27:27;97877.59;;;24.05;56.68
39487;BME280;25173;50.430;18.926;2023-09-19T15:30:27;97870.56;;;24.11;56.82
39487;BME280;25173;50.430;18.926;2023-09-19T15:33:29;97872.63;;;24.14;56.43
39487;BME280;25173;50.430;18.926;2023-09-19T15:36:30;97868.13;;;24.29;56.22
39487;BME280;25173;50.430;18.926;2023-09-19T15:39:31;97863.72;;;24.77;56.08
39487;BME280;25173;50.430;18.926;2023-09-19T15:42:34;97866.69;;;25.44;55.06
39487;BME280;25173;50.430;18.926;2023-09-19T15:45:35;97860.72;;;26.12;53.53
39487;BME280;25173;50.430;18.926;2023-09-19T15:48:35;97865.84;;;26.47;53.03
39487;BME280;25173;50.430;18.926;2023-09-19T15:51:37;97865.09;;;26.50;52.15
39487;BME280;25173;50.430;18.926;2023-09-19T15:54:38;97871.81;;;26.42;52.10
39487;BME280;25173;50.430;18.926;2023-09-19T15:57:45;97872.09;;;26.30;51.96
39487;BME280;25173;50.430;18.926;2023-09-19T16:00:45;97871.28;;;25.93;52.16
39487;BME280;25173;50.430;18.926;2023-09-19T16:03:47;97894.78;;;25.58;51.91
39487;BME280;25173;50.430;18.926;2023-09-19T16:06:48;97904.97;;;25.17;52.67
39487;BME280;25173;50.430;18.926;2023-09-19T16:09:49;97911.72;;;24.90;52.90
39487;BME280;25173;50.430;18.926;2023-09-19T16:12:49;97916.44;;;24.63;53.41
39487;BME280;25173;50.430;18.926;2023-09-19T16:15:50;97913.72;;;24.44;53.56
39487;BME280;25173;50.430;18.926;2023-09-19T16:18:52;97916.81;;;24.19;53.93
39487;BME280;25173;50.430;18.926;2023-09-19T16:21:56;97920.38;;;23.97;54.21
39487;BME280;25173;50.430;18.926;2023-09-19T16:24:56;97923.31;;;23.66;54.74
39487;BME280;25173;50.430;18.926;2023-09-19T16:27:57;97925.00;;;23.35;55.04
39487;BME280;25173;50.430;18.926;2023-09-19T16:30:58;97927.59;;;23.09;55.61